createdAt,value
2018-07-06T00:01:39.585Z,21.31
2018-07-06T00:04:26.322Z,21.33
2018-07-06T00:07:13.144Z,21.36
2018-07-06T00:09:59.842Z,21.37
2018-07-06T00:12:46.564Z,21.38
2018-07-06T00:15:33.138Z,21.39
2018-07-06T00:18:20.225Z,21.39
2018-07-06T00:21:06.781Z,21.41
2018-07-06T00:23:53.598Z,21.42
2018-07-06T00:26:40.505Z,21.43
2018-07-06T00:29:27.304Z,21.44
2018-07-06T00:32:14.093Z,21.45
2018-07-06T00:35:00.946Z,21.47
2018-07-06T00:37:47.759Z,21.49
2018-07-06T00:40:34.731Z,21.51
2018-07-06T00:43:21.372Z,21.53
2018-07-06T00:46:08.220Z,21.54
2018-07-06T00:48:55.136Z,21.55
2018-07-06T00:51:42.111Z,21.56
2018-07-06T00:54:29.021Z,21.57
2018-07-06T00:57:15.877Z,21.58
2018-07-06T01:00:02.763Z,21.61
2018-07-06T01:02:49.607Z,21.63
2018-07-06T01:05:36.348Z,21.66
2018-07-06T01:08:23.440Z,21.67
2018-07-06T01:11:10.465Z,21.68
2018-07-06T01:13:57.114Z,21.68
2018-07-06T01:16:43.827Z,21.69
2018-07-06T01:19:30.726Z,21.69
2018-07-06T01:22:17.641Z,21.69
2018-07-06T01:25:04.486Z,21.69
2018-07-06T01:27:51.234Z,21.70
2018-07-06T01:30:38.185Z,21.69
2018-07-06T01:33:24.873Z,21.68
2018-07-06T01:36:11.836Z,21.68
2018-07-06T01:38:58.603Z,21.67
2018-07-06T01:41:45.632Z,21.67
2018-07-06T01:44:33.038Z,21.67
2018-07-06T01:47:19.776Z,21.68
2018-07-06T01:50:06.560Z,21.71
2018-07-06T01:52:53.743Z,21.71
2018-07-06T01:55:40.773Z,21.70
2018-07-06T01:58:27.600Z,21.72
2018-07-06T02:01:14.516Z,21.72
2018-07-06T02:04:01.284Z,21.73
2018-07-06T02:06:48.678Z,21.72
2018-07-06T02:09:35.529Z,21.71
2018-07-06T02:12:22.296Z,21.71
2018-07-06T02:15:09.084Z,21.71
2018-07-06T02:17:55.799Z,21.72
2018-07-06T02:20:42.814Z,21.73
2018-07-06T02:23:29.706Z,21.73
2018-07-06T02:26:17.161Z,21.74
2018-07-06T02:29:03.844Z,21.74
2018-07-06T02:31:50.677Z,21.75
2018-07-06T02:34:37.853Z,21.74
2018-07-06T02:37:24.754Z,21.73
2018-07-06T02:40:11.433Z,21.73
2018-07-06T02:42:58.286Z,21.74
2018-07-06T02:45:44.977Z,21.75
2018-07-06T02:48:31.642Z,21.78
2018-07-06T02:51:18.372Z,21.79
2018-07-06T02:54:05.414Z,21.81
2018-07-06T02:56:52.507Z,21.83
2018-07-06T02:59:39.311Z,21.83
2018-07-06T03:02:26.197Z,21.83
2018-07-06T03:05:12.809Z,21.82
2018-07-06T03:08:00.165Z,21.85
2018-07-06T03:10:47.063Z,21.85
2018-07-06T03:13:33.760Z,21.83
2018-07-06T03:16:20.583Z,21.85
2018-07-06T03:19:07.467Z,21.85
2018-07-06T03:21:54.388Z,21.86
2018-07-06T03:24:41.151Z,21.85
2018-07-06T03:27:28.029Z,21.84
2018-07-06T03:30:14.727Z,21.82
2018-07-06T03:33:01.797Z,21.80
2018-07-06T03:35:48.523Z,21.80
2018-07-06T03:38:35.361Z,21.80
2018-07-06T03:41:22.037Z,21.79
2018-07-06T03:44:08.732Z,21.79
2018-07-06T03:46:55.403Z,21.79
2018-07-06T03:49:42.297Z,21.78
2018-07-06T03:52:29.257Z,21.77
2018-07-06T03:55:18.321Z,21.77
2018-07-06T03:58:05.472Z,21.76
2018-07-06T04:00:52.189Z,21.77
2018-07-06T04:03:39.100Z,21.77
2018-07-06T04:06:26.398Z,21.77
2018-07-06T04:09:13.165Z,21.78
2018-07-06T04:12:00.757Z,21.80
2018-07-06T04:14:47.534Z,21.79
2018-07-06T04:17:34.517Z,21.79
2018-07-06T04:20:21.388Z,21.78
2018-07-06T04:23:08.051Z,21.76
2018-07-06T04:25:54.633Z,21.77
2018-07-06T04:28:41.382Z,21.75
2018-07-06T04:31:28.418Z,21.74
2018-07-06T04:34:15.213Z,21.73
2018-07-06T04:37:02.280Z,21.74
2018-07-06T04:39:49.207Z,21.75
2018-07-06T04:42:36.185Z,21.77
2018-07-06T04:45:23.128Z,21.77
2018-07-06T04:48:10.605Z,21.76
2018-07-06T04:50:57.460Z,21.78
2018-07-06T04:53:44.338Z,21.78
2018-07-06T04:56:31.055Z,21.78
2018-07-06T04:59:17.754Z,21.78
2018-07-06T05:02:04.720Z,21.76
2018-07-06T05:04:51.832Z,21.76
2018-07-06T05:07:38.563Z,21.76
2018-07-06T05:10:25.690Z,21.76
2018-07-06T05:13:12.559Z,21.73
2018-07-06T05:15:59.339Z,21.74
2018-07-06T05:18:46.201Z,21.75
2018-07-06T05:21:32.931Z,21.78
2018-07-06T05:24:19.924Z,21.79
2018-07-06T05:27:06.683Z,21.80
2018-07-06T05:29:53.480Z,21.81
2018-07-06T05:32:40.207Z,21.81
2018-07-06T05:35:27.092Z,21.80
2018-07-06T05:38:13.805Z,21.81
2018-07-06T05:41:00.474Z,21.82
2018-07-06T05:43:47.373Z,21.83
2018-07-06T05:46:34.174Z,21.81
2018-07-06T05:49:20.767Z,21.82
2018-07-06T05:52:07.566Z,21.82
2018-07-06T05:54:54.365Z,21.84
2018-07-06T05:57:41.378Z,21.85
2018-07-06T06:00:28.287Z,21.85
2018-07-06T06:03:15.266Z,21.88
2018-07-06T06:06:02.072Z,21.93
2018-07-06T06:08:36.475Z,22.00
2018-07-06T06:11:06.380Z,22.05
2018-07-06T06:13:36.461Z,22.07
2018-07-06T06:16:06.789Z,22.09
2018-07-06T06:18:38.338Z,22.11
2018-07-06T06:21:08.332Z,22.15
2018-07-06T06:23:38.414Z,22.17
2018-07-06T06:26:08.730Z,22.20
2018-07-06T06:28:39.232Z,22.22
2018-07-06T06:31:09.544Z,22.25
2018-07-06T06:33:40.149Z,22.27
2018-07-06T06:36:10.591Z,22.28
2018-07-06T06:38:40.905Z,22.30
2018-07-06T06:41:11.455Z,22.33
2018-07-06T06:43:41.344Z,22.34
2018-07-06T06:46:12.470Z,22.37
2018-07-06T06:48:42.723Z,22.40
2018-07-06T06:51:12.835Z,22.44
2018-07-06T06:53:43.124Z,22.48
2018-07-06T06:56:13.491Z,22.51
2018-07-06T06:58:43.929Z,22.53
2018-07-06T07:01:15.074Z,22.53
2018-07-06T07:03:45.352Z,22.53
2018-07-06T07:06:15.968Z,22.54
2018-07-06T07:08:46.323Z,22.56
2018-07-06T07:11:16.609Z,22.60
2018-07-06T07:13:47.662Z,22.61
2018-07-06T07:16:18.617Z,22.63
2018-07-06T07:18:48.869Z,22.65
2018-07-06T07:21:19.585Z,22.65
2018-07-06T07:23:50.735Z,22.67
2018-07-06T07:26:21.670Z,22.67
2018-07-06T07:28:52.540Z,22.67
2018-07-06T07:31:22.831Z,22.69
2018-07-06T07:33:53.441Z,22.70
2018-07-06T07:36:23.752Z,22.70
2018-07-06T07:38:54.210Z,22.68
2018-07-06T07:41:24.994Z,22.69
2018-07-06T07:43:55.150Z,22.70
2018-07-06T07:46:25.705Z,22.73
2018-07-06T07:48:56.411Z,22.75
2018-07-06T07:52:08.775Z,22.78
2018-07-06T07:54:56.557Z,22.79
2018-07-06T07:57:27.096Z,22.79
2018-07-06T07:59:57.257Z,22.81
2018-07-06T08:02:27.946Z,22.81
2018-07-06T08:04:59.066Z,22.81
2018-07-06T08:07:29.547Z,22.83
2018-07-06T08:09:59.626Z,22.84
2018-07-06T08:12:30.194Z,22.86
2018-07-06T08:15:01.301Z,22.88
2018-07-06T08:17:31.561Z,22.93
2018-07-06T08:20:02.314Z,22.96
2018-07-06T08:22:32.209Z,22.99
2018-07-06T08:25:02.639Z,22.97
2018-07-06T08:27:32.834Z,22.95
2018-07-06T08:30:03.610Z,22.95
2018-07-06T08:32:33.463Z,22.96
2018-07-06T08:35:14.631Z,22.98
2018-07-06T08:38:00.801Z,23.00
2018-07-06T08:40:31.079Z,23.02
2018-07-06T08:43:02.278Z,23.02
2018-07-06T08:45:33.299Z,23.02
2018-07-06T08:48:03.500Z,23.03
2018-07-06T08:50:34.226Z,23.02
2018-07-06T08:53:04.557Z,23.04
2018-07-06T08:55:34.773Z,23.04
2018-07-06T08:58:05.087Z,23.04
2018-07-06T09:00:35.406Z,23.06
2018-07-06T09:03:06.179Z,23.09
2018-07-06T09:05:36.481Z,23.10
2018-07-06T09:08:06.720Z,23.10
2018-07-06T09:10:37.015Z,23.11
2018-07-06T09:13:07.908Z,23.12
2018-07-06T09:15:38.400Z,23.14
2018-07-06T09:18:08.545Z,23.14
2018-07-06T09:20:38.852Z,23.11
2018-07-06T09:23:09.502Z,23.07
2018-07-06T09:25:40.373Z,23.05
2018-07-06T09:28:10.574Z,23.00
2018-07-06T09:30:40.766Z,22.97
2018-07-06T09:33:10.869Z,22.96
2018-07-06T09:35:41.511Z,22.94
2018-07-06T09:38:11.988Z,22.91
2018-07-06T09:40:42.218Z,22.90
2018-07-06T09:43:12.479Z,22.86
2018-07-06T09:45:42.807Z,22.85
2018-07-06T09:48:13.511Z,22.84
2018-07-06T09:50:43.749Z,22.84
2018-07-06T09:53:14.150Z,22.85
2018-07-06T09:55:44.412Z,22.84
2018-07-06T09:58:14.579Z,22.84
2018-07-06T10:00:49.946Z,22.84
2018-07-06T10:03:20.241Z,22.86
2018-07-06T10:05:57.297Z,22.84
2018-07-06T10:08:27.516Z,22.87
2018-07-06T10:10:57.690Z,22.86
2018-07-06T10:13:28.030Z,22.85
2018-07-06T10:15:58.286Z,22.86
2018-07-06T10:18:29.105Z,22.85
2018-07-06T10:20:59.438Z,22.85
2018-07-06T10:23:29.545Z,22.85
2018-07-06T10:25:59.944Z,22.85
2018-07-06T10:28:40.484Z,22.85
2018-07-06T10:31:32.810Z,22.84
2018-07-06T10:34:02.710Z,22.80
2018-07-06T10:36:32.630Z,22.74
2018-07-06T10:39:02.901Z,22.69
2018-07-06T10:41:32.975Z,22.67
2018-07-06T10:44:03.373Z,22.64
2018-07-06T10:46:33.584Z,22.62
2018-07-06T10:49:04.151Z,22.60
2018-07-06T10:51:34.573Z,22.59
2018-07-06T10:54:04.786Z,22.61
2018-07-06T10:56:34.950Z,22.62
2018-07-06T10:59:05.323Z,22.64
2018-07-06T11:01:35.724Z,22.66
2018-07-06T11:04:05.964Z,22.68
2018-07-06T11:06:36.368Z,22.69
2018-07-06T11:09:06.791Z,22.70
2018-07-06T11:11:37.222Z,22.71
2018-07-06T11:14:07.914Z,22.71
2018-07-06T11:16:38.160Z,22.69
2018-07-06T11:19:14.750Z,22.68
2018-07-06T11:21:45.257Z,22.70
2018-07-06T11:24:15.335Z,22.70
2018-07-06T11:26:45.710Z,22.70
2018-07-06T11:29:15.916Z,22.70
2018-07-06T11:31:46.169Z,22.71
2018-07-06T11:34:16.339Z,22.73
2018-07-06T11:36:47.317Z,22.74
2018-07-06T11:39:17.412Z,22.77
2018-07-06T11:41:48.008Z,22.79
2018-07-06T11:44:18.448Z,22.82
2018-07-06T11:46:48.579Z,22.85
2018-07-06T11:49:19.105Z,22.84
2018-07-06T11:51:49.854Z,22.87
2018-07-06T11:54:20.074Z,22.91
2018-07-06T11:56:50.411Z,22.96
2018-07-06T11:59:20.726Z,23.01
2018-07-06T12:01:50.832Z,23.02
2018-07-06T12:04:21.261Z,23.03
2018-07-06T12:06:52.325Z,23.02
2018-07-06T12:09:22.355Z,23.03
2018-07-06T12:11:52.577Z,23.03
2018-07-06T12:14:22.602Z,23.07
2018-07-06T12:16:52.772Z,23.08
2018-07-06T12:19:23.256Z,23.06
2018-07-06T12:21:53.767Z,23.05
2018-07-06T12:24:24.051Z,23.07
2018-07-06T12:26:54.266Z,23.09
2018-07-06T12:29:24.223Z,23.10
2018-07-06T12:31:54.250Z,23.09
2018-07-06T12:34:24.456Z,23.09
2018-07-06T12:36:54.679Z,23.08
2018-07-06T12:39:25.115Z,23.10
2018-07-06T12:41:55.279Z,23.09
2018-07-06T12:44:25.369Z,23.08
2018-07-06T12:46:55.528Z,23.10
2018-07-06T12:49:25.707Z,23.11
2018-07-06T12:51:55.959Z,23.17
2018-07-06T12:54:26.110Z,23.27
2018-07-06T12:56:56.323Z,23.34
2018-07-06T12:59:26.650Z,23.40
2018-07-06T13:01:56.848Z,23.45
2018-07-06T13:04:27.111Z,23.52
2018-07-06T13:06:57.215Z,23.58
2018-07-06T13:09:27.281Z,23.64
2018-07-06T13:11:57.347Z,23.67
2018-07-06T13:14:27.719Z,23.73
2018-07-06T13:16:58.171Z,23.81
2018-07-06T13:19:28.378Z,23.89
2018-07-06T13:21:58.629Z,23.94
2018-07-06T13:24:28.895Z,23.99
2018-07-06T13:26:59.125Z,24.02
2018-07-06T13:29:29.316Z,24.07
2018-07-06T13:31:59.682Z,24.12
2018-07-06T13:34:29.893Z,24.15
2018-07-06T13:37:00.048Z,24.21
2018-07-06T13:39:30.810Z,24.23
2018-07-06T17:18:20.336Z,23.44
2018-07-06T17:20:50.566Z,23.34
2018-07-06T17:23:21.083Z,23.28
2018-07-06T17:25:51.311Z,23.20
2018-07-06T17:28:21.789Z,23.14
2018-07-06T17:30:51.947Z,23.07
2018-07-06T17:33:22.235Z,23.03
2018-07-06T17:35:52.653Z,22.99
2018-07-06T17:38:22.945Z,22.97
2018-07-06T17:40:58.652Z,22.91
2018-07-06T17:43:29.331Z,22.86
2018-07-06T17:45:59.788Z,22.82
2018-07-06T17:48:29.784Z,22.80
2018-07-06T17:51:00.045Z,22.77
2018-07-06T17:53:30.281Z,22.70
2018-07-06T17:56:00.991Z,22.65
2018-07-06T17:58:31.280Z,22.61
2018-07-06T18:01:01.767Z,22.56
2018-07-06T18:03:31.999Z,22.52
2018-07-06T18:06:02.548Z,22.53
2018-07-06T18:08:32.644Z,22.50
2018-07-06T18:11:02.860Z,22.50
2018-07-06T18:13:33.238Z,22.51
2018-07-06T18:16:03.997Z,22.48
2018-07-06T18:18:34.380Z,22.46
2018-07-06T18:21:04.691Z,22.45
2018-07-06T18:23:35.298Z,22.42
2018-07-06T18:26:05.571Z,22.40
2018-07-06T18:28:35.846Z,22.37
2018-07-06T18:31:06.280Z,22.37
2018-07-06T18:33:36.383Z,22.36
2018-07-06T18:36:06.610Z,22.37
2018-07-06T18:38:37.000Z,22.37
2018-07-06T18:41:07.267Z,22.38
2018-07-06T18:43:37.343Z,22.40
2018-07-06T18:46:07.901Z,22.43
2018-07-06T18:48:38.174Z,22.45
2018-07-06T18:51:08.636Z,22.47
2018-07-06T18:53:38.974Z,22.43
2018-07-06T18:56:08.984Z,22.41
2018-07-06T18:58:39.385Z,22.38
2018-07-06T19:01:09.931Z,22.34
2018-07-06T19:03:39.957Z,22.31
2018-07-06T19:06:10.288Z,22.28
2018-07-06T19:08:46.992Z,22.23
2018-07-06T19:11:17.120Z,22.18
2018-07-06T19:13:48.228Z,22.16
2018-07-06T19:16:18.370Z,22.14
2018-07-06T19:18:48.760Z,22.13
2018-07-06T19:21:18.839Z,22.10
2018-07-06T19:23:49.130Z,22.06
2018-07-06T19:26:19.208Z,22.04
2018-07-06T19:28:49.392Z,22.01
2018-07-06T19:31:19.640Z,21.96
2018-07-06T19:33:50.087Z,21.94
2018-07-06T19:36:20.235Z,21.90
2018-07-06T19:38:50.781Z,21.89
2018-07-06T19:41:20.967Z,21.91
2018-07-06T19:43:51.339Z,21.88
2018-07-06T19:46:21.669Z,21.90
2018-07-06T19:48:51.958Z,21.92
2018-07-06T19:51:22.253Z,21.96
2018-07-06T19:53:52.328Z,21.97
2018-07-06T19:56:22.595Z,21.95
2018-07-06T19:58:52.882Z,21.96
2018-07-06T20:01:23.062Z,21.98
2018-07-06T20:03:54.208Z,21.98
2018-07-06T20:06:25.581Z,21.99
2018-07-06T20:08:56.186Z,21.97
2018-07-06T20:17:02.861Z,21.82
2018-07-06T20:19:32.952Z,21.78
2018-07-06T20:22:04.492Z,21.74
2018-07-06T20:24:34.886Z,21.72
2018-07-06T20:27:06.324Z,21.69
2018-07-06T20:29:36.516Z,21.69
2018-07-06T20:32:06.623Z,21.71
2018-07-06T20:34:36.861Z,21.74
2018-07-06T20:37:07.071Z,21.74
2018-07-06T20:39:37.526Z,21.78
2018-07-06T20:42:07.818Z,21.80
2018-07-06T20:44:38.021Z,21.81
2018-07-06T20:47:09.214Z,21.79
2018-07-06T20:49:39.518Z,21.78
2018-07-06T20:52:16.051Z,21.79
2018-07-06T20:54:46.193Z,21.80
2018-07-06T20:57:16.428Z,21.82
2018-07-06T20:59:46.775Z,21.84
2018-07-06T21:02:16.859Z,21.85
2018-07-06T21:04:50.079Z,21.85
2018-07-06T21:07:20.386Z,21.83
2018-07-06T21:09:51.549Z,21.80
2018-07-06T21:12:21.859Z,21.75
2018-07-06T21:14:52.132Z,21.70
2018-07-06T21:17:22.398Z,21.65
2018-07-06T21:19:52.898Z,21.59
2018-07-06T21:22:23.321Z,21.55
2018-07-06T21:24:54.149Z,21.52
2018-07-06T21:27:24.605Z,21.50
2018-07-06T21:29:54.859Z,21.44
2018-07-06T21:32:25.195Z,21.41
2018-07-06T21:34:55.474Z,21.37
2018-07-06T21:37:25.835Z,21.32
2018-07-06T21:39:55.909Z,21.30
2018-07-06T21:42:26.240Z,21.28
2018-07-06T21:44:56.723Z,21.27
2018-07-06T21:47:26.983Z,21.28
2018-07-06T21:49:57.494Z,21.26
2018-07-06T21:52:27.785Z,21.26
2018-07-06T21:54:57.743Z,21.24
2018-07-06T21:57:28.556Z,21.24
2018-07-06T21:59:58.727Z,21.23
2018-07-06T22:02:29.141Z,21.22
2018-07-06T22:04:58.978Z,21.19
2018-07-06T22:07:28.708Z,21.15
2018-07-06T22:09:59.064Z,21.13
2018-07-06T22:12:29.203Z,21.09
2018-07-06T22:14:59.187Z,21.07
2018-07-06T22:17:29.558Z,21.04
2018-07-06T22:19:59.762Z,20.98
2018-07-06T22:22:29.892Z,20.96
2018-07-06T22:25:01.337Z,20.94
2018-07-06T22:27:31.546Z,20.93
2018-07-06T22:30:01.821Z,20.92
2018-07-06T22:32:31.706Z,20.89
2018-07-06T22:35:02.030Z,20.87
2018-07-06T22:37:32.205Z,20.85
2018-07-06T22:40:02.588Z,20.82
2018-07-06T22:42:32.857Z,20.78
2018-07-06T22:45:03.242Z,20.76
2018-07-06T22:47:33.823Z,20.73
2018-07-06T22:50:04.139Z,20.72
2018-07-06T22:52:34.507Z,20.71
2018-07-06T22:55:11.149Z,20.69
2018-07-06T22:57:41.419Z,20.69
2018-07-06T23:00:11.661Z,20.65
2018-07-06T23:02:41.231Z,20.66
2018-07-06T23:05:17.906Z,20.64
2018-07-06T23:07:48.256Z,20.64
2018-07-06T23:10:18.281Z,20.61
2018-07-06T23:12:48.471Z,20.65
2018-07-06T23:15:18.886Z,20.66
2018-07-06T23:17:49.072Z,20.69
2018-07-06T23:20:19.263Z,20.70
2018-07-06T23:23:07.186Z,20.71
2018-07-06T23:25:49.547Z,20.73
2018-07-06T23:28:19.923Z,20.74
2018-07-06T23:30:50.276Z,20.74
2018-07-06T23:33:20.501Z,20.72
2018-07-06T23:35:50.646Z,20.70
2018-07-06T23:38:20.762Z,20.70
2018-07-06T23:40:51.062Z,20.69
2018-07-06T23:43:21.371Z,20.68
2018-07-06T23:45:51.698Z,20.66
2018-07-06T23:48:21.836Z,20.63
2018-07-06T23:50:52.547Z,20.62
2018-07-06T23:53:25.833Z,20.59
2018-07-06T23:55:56.268Z,20.56
2018-07-06T23:58:26.450Z,20.55
